createdAt,value
2023-07-15T00:00:23.259Z,6.43
2023-07-15T00:02:52.238Z,5.05
2023-07-15T00:05:21.721Z,4.65
2023-07-15T00:07:50.691Z,4.95
2023-07-15T00:10:18.523Z,5.60
2023-07-15T00:12:45.658Z,5.60
2023-07-15T00:15:13.757Z,5.07
2023-07-15T00:17:41.176Z,5.60
2023-07-15T00:20:13.461Z,4.75
2023-07-15T00:22:40.655Z,4.78
2023-07-15T00:25:11.317Z,5.65
2023-07-15T00:27:38.435Z,7.55
2023-07-15T00:30:05.820Z,5.25
2023-07-15T00:32:33.943Z,5.93
2023-07-15T00:35:01.164Z,4.40
2023-07-15T00:37:29.697Z,4.93
2023-07-15T00:39:56.928Z,5.93
2023-07-15T00:42:44.704Z,6.53
2023-07-15T00:45:12.894Z,6.05
2023-07-15T00:47:47.145Z,4.65
2023-07-15T00:50:14.790Z,5.70
2023-07-15T00:52:42.035Z,5.43
2023-07-15T00:55:09.567Z,4.85
2023-07-15T00:57:36.690Z,6.38
2023-07-15T01:00:06.041Z,5.77
2023-07-15T01:02:33.342Z,4.80
2023-07-15T01:05:00.471Z,4.55
2023-07-15T01:07:27.862Z,5.78
2023-07-15T01:09:55.107Z,6.10
2023-07-15T01:12:22.330Z,6.70
2023-07-15T01:14:50.516Z,5.18
2023-07-15T01:17:20.217Z,5.28
2023-07-15T01:19:47.433Z,5.72
2023-07-15T01:22:14.716Z,6.87
2023-07-15T01:24:41.958Z,6.57
2023-07-15T01:27:10.215Z,6.32
2023-07-15T01:29:37.488Z,6.10
2023-07-15T01:32:04.393Z,5.72
2023-07-15T01:34:31.989Z,5.72
2023-07-15T01:36:59.478Z,5.30
2023-07-15T01:39:26.842Z,5.20
2023-07-15T01:41:54.175Z,5.53
2023-07-15T01:44:21.309Z,6.73
2023-07-15T01:46:49.004Z,5.07
2023-07-15T01:49:16.190Z,5.47
2023-07-15T01:51:43.313Z,6.65
2023-07-15T01:54:10.596Z,5.90
2023-07-15T01:56:37.779Z,5.05
2023-07-15T01:59:04.947Z,6.82
2023-07-15T02:01:32.669Z,5.28
2023-07-15T02:04:00.801Z,5.10
2023-07-15T02:06:27.993Z,6.30
2023-07-15T02:08:57.772Z,5.72
2023-07-15T02:11:26.593Z,5.88
2023-07-15T02:13:53.679Z,5.40
2023-07-15T02:16:20.871Z,5.18
2023-07-15T02:18:49.342Z,6.20
2023-07-15T02:21:16.831Z,5.22
2023-07-15T02:23:43.973Z,5.65
2023-07-15T02:26:11.102Z,6.90
2023-07-15T02:28:38.476Z,5.47
2023-07-15T02:31:05.663Z,5.35
2023-07-15T02:33:33.041Z,5.60
2023-07-15T02:36:00.172Z,4.85
2023-07-15T02:38:29.642Z,5.07
2023-07-15T02:40:56.782Z,5.40
2023-07-15T02:43:23.983Z,6.13
2023-07-15T02:45:52.316Z,5.72
2023-07-15T02:48:21.219Z,8.48
2023-07-15T02:50:53.015Z,7.80
2023-07-15T02:53:20.443Z,5.13
2023-07-15T02:55:47.633Z,5.53
2023-07-15T02:58:15.113Z,5.95
2023-07-15T03:00:42.569Z,7.75
2023-07-15T03:03:10.823Z,7.75
2023-07-15T03:05:38.152Z,6.10
2023-07-15T03:08:05.440Z,7.22
2023-07-15T03:10:32.539Z,5.43
2023-07-15T03:12:59.786Z,6.57
2023-07-15T03:15:26.880Z,5.85
2023-07-15T03:17:54.053Z,8.32
2023-07-15T03:20:21.519Z,8.13
2023-07-15T03:22:49.276Z,6.30
2023-07-15T03:25:18.226Z,7.65
2023-07-15T03:27:45.809Z,5.75
2023-07-15T03:30:13.433Z,7.32
2023-07-15T03:32:41.260Z,5.50
2023-07-15T03:35:09.846Z,6.65
2023-07-15T03:37:37.596Z,6.05
2023-07-15T03:40:13.246Z,5.18
2023-07-15T03:42:40.885Z,6.95
2023-07-15T03:45:08.606Z,5.85
2023-07-15T03:47:36.270Z,5.35
2023-07-15T03:50:04.183Z,9.40
2023-07-15T03:52:31.439Z,5.57
2023-07-15T03:54:59.726Z,6.05
2023-07-15T03:57:27.099Z,7.35
2023-07-15T03:59:54.240Z,5.40
2023-07-15T04:02:21.601Z,6.77
2023-07-15T04:04:48.756Z,5.57
2023-07-15T04:07:15.920Z,6.85
2023-07-15T04:09:43.077Z,5.28
2023-07-15T04:12:10.733Z,6.68
2023-07-15T04:14:38.111Z,5.28
2023-07-15T04:17:05.331Z,6.00
2023-07-15T04:19:32.568Z,6.43
2023-07-15T04:21:59.688Z,5.38
2023-07-15T04:24:26.728Z,6.18
2023-07-15T04:26:53.987Z,5.22
2023-07-15T04:29:21.065Z,5.60
2023-07-15T04:31:48.974Z,7.33
2023-07-15T04:34:16.220Z,7.68
2023-07-15T04:36:43.337Z,5.85
2023-07-15T04:39:10.446Z,5.70
2023-07-15T04:41:37.557Z,6.25
2023-07-15T04:44:04.851Z,7.07
2023-07-15T04:46:32.518Z,6.78
2023-07-15T04:48:59.719Z,5.85
2023-07-15T04:51:26.873Z,6.45
2023-07-15T04:53:54.193Z,7.33
2023-07-15T04:56:21.419Z,6.30
2023-07-15T04:58:49.121Z,5.28
2023-07-15T05:01:16.532Z,7.38
2023-07-15T05:03:43.970Z,6.30
2023-07-15T05:06:11.296Z,5.33
2023-07-15T05:08:38.519Z,7.15
2023-07-15T05:11:05.748Z,6.13
2023-07-15T05:13:32.889Z,6.53
2023-07-15T05:16:00.333Z,5.50
2023-07-15T05:18:27.587Z,6.75
2023-07-15T05:20:54.732Z,5.32
2023-07-15T05:23:23.194Z,6.75
2023-07-15T05:25:50.332Z,7.15
2023-07-15T05:28:17.636Z,5.13
2023-07-15T05:30:44.711Z,5.50
2023-07-15T05:33:11.836Z,6.60
2023-07-15T05:35:39.570Z,6.07
2023-07-15T05:38:06.701Z,5.05
2023-07-15T05:40:33.854Z,5.85
2023-07-15T05:43:01.911Z,6.50
2023-07-15T05:45:28.980Z,6.15
2023-07-15T05:47:56.199Z,4.63
2023-07-15T05:50:23.438Z,5.93
2023-07-15T05:52:50.579Z,4.72
2023-07-15T05:55:20.050Z,4.35
2023-07-15T05:57:47.208Z,4.00
2023-07-15T06:00:14.478Z,4.85
2023-07-15T06:02:41.642Z,4.13
2023-07-15T06:05:09.124Z,3.53
2023-07-15T06:07:36.272Z,4.35
2023-07-15T06:10:04.149Z,4.25
2023-07-15T06:12:31.472Z,6.23
2023-07-15T06:14:58.657Z,4.18
2023-07-15T06:17:26.078Z,7.82
2023-07-15T06:19:52.892Z,7.63
2023-07-15T06:22:20.155Z,6.07
2023-07-15T06:24:47.806Z,8.40
2023-07-15T06:27:14.979Z,7.80
2023-07-15T06:29:43.525Z,21.92
2023-07-15T06:32:10.679Z,14.83
2023-07-15T06:34:37.846Z,4.05
2023-07-15T06:37:05.100Z,6.33
2023-07-15T06:39:32.724Z,3.30
2023-07-15T06:41:59.891Z,9.07
2023-07-15T06:44:27.074Z,3.07
2023-07-15T06:46:54.267Z,3.28
2023-07-15T06:49:21.423Z,2.78
2023-07-15T06:51:48.614Z,3.55
2023-07-15T06:54:15.785Z,3.60
2023-07-15T06:56:42.896Z,3.85
2023-07-15T06:59:10.040Z,2.60
2023-07-15T07:01:37.187Z,3.35
2023-07-15T07:04:04.512Z,3.47
2023-07-15T07:06:31.676Z,3.28
2023-07-15T07:08:58.877Z,2.43
2023-07-15T07:11:27.660Z,2.55
2023-07-15T07:13:54.770Z,2.65
2023-07-15T07:16:21.902Z,2.60
2023-07-15T07:18:49.185Z,3.72
2023-07-15T07:21:16.670Z,2.03
2023-07-15T07:23:44.131Z,3.13
2023-07-15T07:26:11.280Z,4.10
2023-07-15T07:28:41.225Z,2.83
2023-07-15T07:31:08.793Z,2.37
2023-07-15T07:33:35.967Z,2.47
2023-07-15T07:36:04.044Z,3.70
2023-07-15T07:38:31.222Z,3.00
2023-07-15T07:41:17.687Z,3.40
2023-07-15T07:43:45.291Z,2.13
2023-07-15T07:46:12.672Z,2.22
2023-07-15T07:48:40.075Z,1.93
2023-07-15T07:51:07.351Z,2.15
2023-07-15T07:53:34.513Z,2.60
2023-07-15T07:56:01.688Z,3.80
2023-07-15T07:58:29.402Z,2.22
2023-07-15T08:00:56.594Z,2.08
2023-07-15T08:03:23.731Z,1.90
2023-07-15T08:05:51.753Z,2.03
2023-07-15T08:08:18.924Z,2.17
2023-07-15T08:10:46.106Z,1.75
2023-07-15T08:13:13.176Z,2.22
2023-07-15T08:15:40.347Z,2.10
2023-07-15T08:18:08.261Z,2.60
2023-07-15T08:20:35.774Z,2.60
2023-07-15T08:23:03.133Z,2.20
2023-07-15T08:25:30.751Z,3.50
2023-07-15T08:27:58.218Z,2.20
2023-07-15T08:30:25.476Z,3.25
2023-07-15T08:32:52.739Z,2.15
2023-07-15T08:35:20.282Z,4.65
2023-07-15T08:37:47.453Z,1.80
2023-07-15T08:40:14.981Z,1.70
2023-07-15T08:42:42.679Z,1.37
2023-07-15T08:45:10.394Z,1.50
2023-07-15T08:47:40.452Z,1.70
2023-07-15T08:50:09.936Z,1.70
2023-07-15T08:52:37.583Z,3.75
2023-07-15T08:55:06.098Z,1.93
2023-07-15T08:57:33.992Z,2.38
2023-07-15T09:00:01.420Z,3.08
2023-07-15T09:02:28.614Z,2.10
2023-07-15T09:04:55.780Z,1.75
2023-07-15T09:07:31.251Z,2.20
2023-07-15T09:10:06.059Z,1.50
2023-07-15T09:12:33.257Z,1.90
2023-07-15T09:15:01.865Z,1.98
2023-07-15T09:17:29.080Z,2.63
2023-07-15T09:19:56.384Z,1.60
2023-07-15T09:22:28.272Z,1.60
2023-07-15T09:25:03.813Z,4.10
2023-07-15T09:27:30.954Z,2.92
2023-07-15T09:29:58.062Z,2.42
2023-07-15T09:32:25.191Z,2.27
2023-07-15T09:34:53.574Z,2.08
2023-07-15T09:37:32.366Z,1.58
2023-07-15T09:40:01.692Z,2.05
2023-07-15T09:42:28.917Z,1.55
2023-07-15T09:44:56.612Z,1.70
2023-07-15T09:47:25.716Z,2.33
2023-07-15T09:49:52.880Z,1.90
2023-07-15T09:52:20.850Z,3.20
2023-07-15T09:54:48.236Z,1.70
2023-07-15T09:57:16.737Z,2.15
2023-07-15T09:59:48.285Z,2.00
2023-07-15T10:02:35.512Z,1.80
2023-07-15T10:05:04.389Z,2.00
2023-07-15T10:07:31.751Z,2.17
2023-07-15T10:10:00.798Z,3.40
2023-07-15T10:12:29.147Z,1.90
2023-07-15T10:14:56.657Z,2.20
2023-07-15T10:17:23.788Z,3.47
2023-07-15T10:19:51.825Z,2.08
2023-07-15T10:22:20.088Z,2.30
2023-07-15T10:24:55.747Z,1.77
2023-07-15T10:27:23.046Z,2.50
2023-07-15T10:30:10.050Z,2.17
2023-07-15T10:32:37.261Z,2.63
2023-07-15T10:35:06.041Z,2.92
2023-07-15T10:37:35.327Z,1.90
2023-07-15T10:40:02.526Z,2.20
2023-07-15T10:42:37.969Z,2.40
2023-07-15T10:45:05.287Z,2.20
2023-07-15T10:47:32.093Z,2.05
2023-07-15T10:49:58.889Z,2.20
2023-07-15T10:52:27.036Z,2.00
2023-07-15T10:54:59.086Z,1.90
2023-07-15T10:57:29.087Z,1.83
2023-07-15T10:59:57.974Z,2.35
2023-07-15T11:02:25.159Z,3.90
2023-07-15T11:04:52.635Z,3.03
2023-07-15T11:07:19.872Z,1.90
2023-07-15T11:09:48.638Z,2.40
2023-07-15T11:12:15.745Z,2.45
2023-07-15T11:14:44.941Z,3.35
2023-07-15T11:17:18.243Z,3.65
2023-07-15T11:19:46.648Z,5.30
2023-07-15T11:22:13.840Z,3.10
2023-07-15T11:24:41.158Z,2.83
2023-07-15T11:27:08.322Z,2.10
2023-07-15T11:29:35.453Z,2.40
2023-07-15T11:32:03.404Z,2.20
2023-07-15T11:34:30.708Z,4.03
2023-07-15T11:37:00.041Z,3.60
2023-07-15T11:39:28.765Z,3.10
2023-07-15T11:41:55.943Z,2.45
2023-07-15T11:44:24.034Z,2.35
2023-07-15T11:46:51.509Z,2.58
2023-07-15T11:49:22.843Z,2.80
2023-07-15T11:51:50.355Z,2.10
2023-07-15T11:54:17.918Z,2.40
2023-07-15T11:56:45.952Z,3.08
2023-07-15T11:59:13.808Z,2.50
2023-07-15T12:01:41.721Z,2.15
2023-07-15T12:04:16.853Z,2.33
2023-07-15T12:06:53.779Z,1.95
2023-07-15T12:09:22.759Z,3.10
2023-07-15T12:11:50.337Z,2.30
2023-07-15T12:14:17.992Z,2.28
2023-07-15T12:16:46.031Z,2.40
2023-07-15T12:19:15.729Z,2.10
2023-07-15T12:21:43.012Z,2.20
2023-07-15T12:24:10.362Z,2.40
2023-07-15T12:26:37.523Z,2.30
2023-07-15T12:29:04.808Z,1.77
2023-07-15T12:31:31.905Z,2.25
2023-07-15T12:33:59.114Z,2.60
2023-07-15T12:36:26.299Z,2.00
2023-07-15T12:38:53.459Z,1.80
2023-07-15T12:41:20.753Z,2.50
2023-07-15T12:43:47.842Z,2.00
2023-07-15T12:46:15.444Z,2.50
2023-07-15T12:48:42.763Z,2.20
2023-07-15T12:51:09.907Z,2.83
2023-07-15T12:53:39.142Z,3.40
2023-07-15T12:56:06.418Z,2.50
2023-07-15T12:58:33.564Z,2.50
2023-07-15T13:01:01.158Z,2.53
2023-07-15T13:03:28.434Z,2.30
2023-07-15T13:05:55.995Z,2.20
2023-07-15T13:08:23.131Z,2.20
2023-07-15T13:10:50.358Z,2.20
2023-07-15T13:13:17.462Z,2.22
2023-07-15T13:15:45.936Z,2.50
2023-07-15T13:18:13.704Z,2.47
2023-07-15T13:20:41.079Z,2.33
2023-07-15T13:23:08.772Z,2.00
2023-07-15T13:25:35.975Z,2.23
2023-07-15T13:28:03.062Z,3.42
2023-07-15T13:30:30.210Z,2.40
2023-07-15T13:32:57.381Z,2.30
2023-07-15T13:35:24.500Z,2.53
2023-07-15T13:37:51.991Z,2.38
2023-07-15T13:40:19.129Z,2.25
2023-07-15T13:42:46.239Z,2.13
2023-07-15T13:45:13.342Z,2.10
2023-07-15T13:47:40.528Z,2.40
2023-07-15T13:50:07.893Z,2.38
2023-07-15T13:52:35.116Z,2.53
2023-07-15T13:55:02.339Z,2.10
2023-07-15T13:57:29.466Z,3.30
2023-07-15T13:59:56.565Z,2.20
2023-07-15T14:02:23.684Z,2.10
2023-07-15T14:04:51.091Z,4.20
2023-07-15T14:07:18.242Z,2.00
2023-07-15T14:09:45.417Z,2.10
2023-07-15T14:12:12.563Z,2.20
2023-07-15T14:14:39.657Z,2.40
2023-07-15T14:17:09.081Z,2.15
2023-07-15T14:19:36.424Z,2.20
2023-07-15T14:22:15.274Z,2.40
2023-07-15T14:24:43.444Z,2.40
2023-07-15T14:27:11.832Z,2.17
2023-07-15T14:29:39.828Z,2.50
2023-07-15T14:32:07.760Z,2.08
2023-07-15T14:34:34.901Z,2.30
2023-07-15T14:37:02.012Z,3.20
2023-07-15T14:39:29.203Z,2.10
2023-07-15T14:41:58.417Z,2.90
2023-07-15T14:44:25.540Z,2.15
2023-07-15T14:46:52.750Z,2.25
2023-07-15T14:49:19.894Z,2.40
2023-07-15T14:51:47.040Z,2.70
2023-07-15T14:54:14.235Z,2.40
2023-07-15T14:56:41.412Z,3.00
2023-07-15T14:59:08.590Z,2.45
2023-07-15T15:01:35.873Z,2.10
2023-07-15T15:04:03.086Z,2.70
2023-07-15T15:06:31.203Z,2.30
2023-07-15T15:08:58.374Z,2.30
2023-07-15T15:11:27.086Z,2.35
2023-07-15T15:13:54.176Z,2.60
2023-07-15T15:16:21.348Z,3.20
2023-07-15T15:18:48.541Z,2.50
2023-07-15T15:21:16.132Z,2.90
2023-07-15T15:23:43.511Z,2.35
2023-07-15T15:26:12.497Z,2.30
2023-07-15T15:28:42.501Z,2.40
2023-07-15T15:31:10.820Z,3.60
2023-07-15T15:33:38.139Z,2.30
2023-07-15T15:36:05.376Z,4.03
2023-07-15T15:38:32.605Z,2.38
2023-07-15T15:40:59.741Z,2.28
2023-07-15T15:43:26.951Z,2.55
2023-07-15T15:45:54.170Z,2.50
2023-07-15T15:48:21.508Z,2.50
2023-07-15T15:50:48.555Z,2.47
2023-07-15T15:53:15.697Z,2.42
2023-07-15T15:55:43.280Z,2.58
2023-07-15T15:58:10.550Z,2.43
2023-07-15T16:00:39.017Z,2.87
2023-07-15T16:03:07.942Z,2.27
2023-07-15T16:05:35.660Z,2.70
2023-07-15T16:08:02.830Z,2.90
2023-07-15T16:10:29.929Z,2.45
2023-07-15T16:12:57.088Z,2.50
2023-07-15T16:15:24.283Z,2.40
2023-07-15T16:17:51.722Z,3.50
2023-07-15T16:20:18.877Z,2.47
2023-07-15T16:22:46.058Z,2.28
2023-07-15T16:25:13.208Z,2.17
2023-07-15T16:27:40.449Z,2.40
2023-07-15T16:30:08.001Z,2.60
2023-07-15T16:32:35.448Z,2.43
2023-07-15T16:35:02.935Z,2.70
2023-07-15T16:37:30.063Z,2.45
2023-07-15T16:39:57.257Z,2.10
2023-07-15T16:42:24.366Z,2.88
2023-07-15T16:44:51.466Z,2.50
2023-07-15T16:47:18.597Z,2.20
2023-07-15T16:49:45.698Z,2.30
2023-07-15T16:52:12.899Z,2.20
2023-07-15T16:54:40.053Z,3.70
2023-07-15T16:57:07.228Z,1.92
2023-07-15T16:59:34.378Z,2.40
2023-07-15T17:02:01.591Z,2.50
2023-07-15T17:04:28.786Z,2.73
2023-07-15T17:06:56.191Z,2.55
2023-07-15T17:09:24.907Z,2.80
2023-07-15T17:11:52.143Z,2.42
2023-07-15T17:14:19.268Z,2.83
2023-07-15T17:16:46.489Z,2.38
2023-07-15T17:19:14.944Z,3.03
2023-07-15T17:21:42.063Z,5.37
2023-07-15T17:24:09.185Z,8.45
2023-07-15T17:26:36.422Z,2.78
2023-07-15T17:29:03.523Z,5.87
2023-07-15T17:31:30.659Z,0.73
2023-07-15T17:33:57.857Z,1.60
2023-07-15T17:36:24.970Z,0.25
2023-07-15T17:38:52.191Z,0.15
2023-07-15T17:41:19.370Z,0.10
2023-07-15T17:43:46.558Z,0.60
2023-07-15T17:46:13.776Z,0.20
2023-07-15T17:48:40.898Z,0.10
2023-07-15T17:51:08.150Z,0.17
2023-07-15T17:53:35.336Z,0.10
2023-07-15T17:56:02.593Z,0.35
2023-07-15T17:58:29.943Z,0.10
2023-07-15T18:00:57.359Z,0.38
2023-07-15T18:03:24.607Z,0.22
2023-07-15T18:05:52.279Z,0.22
2023-07-15T18:08:19.657Z,1.00
2023-07-15T18:10:46.804Z,0.20
2023-07-15T18:13:14.092Z,0.52
2023-07-15T18:15:43.335Z,0.15
2023-07-15T18:18:10.630Z,0.55
2023-07-15T18:20:37.824Z,0.10
2023-07-15T18:23:05.087Z,0.10
2023-07-15T18:25:32.325Z,0.00
2023-07-15T18:27:59.448Z,0.25
2023-07-15T18:30:28.320Z,0.22
2023-07-15T18:32:55.791Z,0.10
2023-07-15T18:35:23.023Z,0.40
2023-07-15T18:37:50.113Z,0.10
2023-07-15T18:40:17.333Z,0.00
2023-07-15T18:42:44.420Z,0.30
2023-07-15T18:45:11.631Z,0.15
2023-07-15T18:47:38.848Z,1.67
2023-07-15T18:50:06.302Z,0.30
2023-07-15T18:52:33.488Z,0.38
2023-07-15T18:55:00.590Z,0.40
2023-07-15T18:57:27.731Z,0.15
2023-07-15T18:59:54.992Z,0.90
2023-07-15T19:02:22.228Z,1.17
2023-07-15T19:04:50.063Z,0.30
2023-07-15T19:07:17.277Z,0.00
2023-07-15T19:09:44.444Z,0.10
2023-07-15T19:12:11.776Z,0.28
2023-07-15T19:14:38.943Z,1.17
2023-07-15T19:17:06.304Z,0.22
2023-07-15T19:19:33.492Z,0.10
2023-07-15T19:22:00.731Z,0.10
2023-07-15T19:24:27.907Z,0.10
2023-07-15T19:26:55.002Z,0.70
2023-07-15T19:29:22.135Z,0.13
2023-07-15T19:31:49.280Z,0.28
2023-07-15T19:34:16.479Z,1.38
2023-07-15T19:36:43.628Z,0.30
2023-07-15T19:39:10.762Z,0.00
2023-07-15T19:41:37.937Z,0.10
2023-07-15T19:44:05.100Z,0.30
2023-07-15T19:46:32.333Z,0.20
2023-07-15T19:48:59.518Z,0.10
2023-07-15T19:51:43.747Z,0.20
2023-07-15T19:54:12.892Z,2.00
2023-07-15T19:56:40.132Z,0.10
2023-07-15T19:59:07.701Z,0.17
2023-07-15T20:01:35.211Z,0.25
2023-07-15T20:04:02.608Z,0.10
2023-07-15T20:06:29.739Z,0.10
2023-07-15T20:08:57.212Z,1.05
2023-07-15T20:11:24.431Z,0.10
2023-07-15T20:13:51.663Z,0.17
2023-07-15T20:16:19.290Z,0.10
2023-07-15T20:18:46.857Z,0.10
2023-07-15T20:21:14.024Z,0.32
2023-07-15T20:23:41.181Z,0.25
2023-07-15T20:26:07.938Z,0.22
2023-07-15T20:28:35.065Z,0.20
2023-07-15T20:31:03.160Z,0.20
2023-07-15T20:33:30.980Z,0.20
2023-07-15T20:35:58.237Z,0.10
2023-07-15T20:38:25.520Z,0.20
2023-07-15T20:40:56.896Z,0.00
2023-07-15T20:43:25.005Z,0.88
2023-07-15T20:45:52.231Z,0.10
2023-07-15T20:48:19.398Z,0.20
2023-07-15T20:50:46.499Z,0.20
2023-07-15T20:53:13.812Z,0.15
2023-07-15T20:55:41.797Z,0.10
2023-07-15T20:58:09.391Z,0.30
2023-07-15T21:00:36.522Z,0.55
2023-07-15T21:03:03.701Z,0.10
2023-07-15T21:05:30.879Z,0.28
2023-07-15T21:07:57.985Z,0.40
2023-07-15T21:10:25.212Z,0.10
2023-07-15T21:12:52.422Z,0.20
2023-07-15T21:15:19.649Z,0.20
2023-07-15T21:17:46.757Z,0.20
2023-07-15T21:20:16.602Z,0.20
2023-07-15T21:22:44.465Z,0.10
2023-07-15T21:25:11.847Z,0.40
2023-07-15T21:27:39.032Z,0.10
2023-07-15T21:30:06.735Z,0.25
2023-07-15T21:32:34.045Z,0.22
2023-07-15T21:35:01.259Z,0.10
2023-07-15T21:37:28.482Z,0.38
2023-07-15T21:39:55.255Z,0.38
2023-07-15T21:42:22.404Z,0.38
2023-07-15T21:44:49.600Z,0.35
2023-07-15T21:47:16.757Z,0.10
2023-07-15T21:49:43.815Z,0.20
2023-07-15T21:52:10.966Z,0.20
2023-07-15T21:54:38.130Z,0.25
2023-07-15T21:57:05.430Z,3.60
2023-07-15T21:59:32.610Z,0.47
2023-07-15T22:01:59.724Z,0.17
2023-07-15T22:04:26.927Z,0.57
2023-07-15T22:06:54.090Z,0.15
2023-07-15T22:09:21.211Z,0.17
2023-07-15T22:11:48.388Z,0.10
2023-07-15T22:14:15.742Z,0.25
2023-07-15T22:16:42.944Z,0.57
2023-07-15T22:19:10.050Z,0.28
2023-07-15T22:21:37.118Z,0.10
2023-07-15T22:24:04.268Z,0.08
2023-07-15T22:26:32.282Z,0.10
2023-07-15T22:28:59.612Z,0.65
2023-07-15T22:31:26.772Z,0.20
2023-07-15T22:33:56.322Z,1.00
2023-07-15T22:36:23.361Z,0.17
2023-07-15T22:38:50.434Z,0.10
2023-07-15T22:41:17.559Z,0.30
2023-07-15T22:43:44.665Z,0.10
2023-07-15T22:46:11.815Z,0.10
2023-07-15T22:48:39.428Z,0.20
2023-07-15T22:51:06.607Z,0.05
2023-07-15T22:53:33.862Z,0.10
2023-07-15T22:56:01.028Z,0.28
2023-07-15T22:58:28.269Z,0.30
2023-07-15T23:00:57.771Z,0.10
2023-07-15T23:03:26.084Z,0.20
2023-07-15T23:05:53.321Z,0.20
2023-07-15T23:08:20.469Z,0.10
2023-07-15T23:10:48.475Z,0.10
2023-07-15T23:13:17.141Z,0.30
2023-07-15T23:15:45.604Z,0.15
2023-07-15T23:18:12.793Z,0.65
2023-07-15T23:20:39.914Z,0.30
2023-07-15T23:23:16.693Z,0.45
2023-07-15T23:25:45.378Z,0.10
2023-07-15T23:28:12.518Z,0.10
2023-07-15T23:30:39.687Z,0.05
2023-07-15T23:33:06.796Z,0.30
2023-07-15T23:35:33.997Z,0.10
2023-07-15T23:38:01.296Z,0.05
2023-07-15T23:40:28.497Z,0.10
2023-07-15T23:42:55.672Z,0.50
2023-07-15T23:45:22.784Z,0.50
2023-07-15T23:47:49.944Z,0.25
2023-07-15T23:50:17.179Z,0.10
2023-07-15T23:52:44.308Z,0.20
2023-07-15T23:55:11.366Z,0.10
2023-07-15T23:57:39.621Z,0.22
